sensor_id;sensor_type;location;lat;lon;timestamp;pressure;altitude;pressure_sealevel;temperature;humidity
37368;BME280;23240;43.210;27.910;2022-11-03T00:03:58;101529.00;;;13.47;100.00
37368;BME280;23240;43.210;27.910;2022-11-03T00:06:23;101531.94;;;13.44;100.00
37368;BME280;23240;43.210;27.910;2022-11-03T00:08:49;101524.84;;;13.43;100.00
37368;BME280;23240;43.210;27.910;2022-11-03T00:11:14;101525.84;;;13.42;100.00
37368;BME280;23240;43.210;27.910;2022-11-03T00:13:41;101518.97;;;13.49;100.00
37368;BME280;23240;43.210;27.910;2022-11-03T00:16:11;101530.00;;;13.46;100.00
37368;BME280;23240;43.210;27.910;2022-11-03T00:18:38;101534.63;;;13.44;100.00
37368;BME280;23240;43.210;27.910;2022-11-03T00:21:06;101531.38;;;13.40;100.00
37368;BME280;23240;43.210;27.910;2022-11-03T00:23:40;101530.50;;;13.40;100.00
37368;BME280;23240;43.210;27.910;2022-11-03T00:28:38;101527.03;;;13.60;100.00
37368;BME280;23240;43.210;27.910;2022-11-03T00:31:10;101531.31;;;13.62;100.00
37368;BME280;23240;43.210;27.910;2022-11-03T00:33:37;101536.22;;;13.69;100.00
37368;BME280;23240;43.210;27.910;2022-11-03T00:36:04;101540.59;;;13.70;100.00
37368;BME280;23240;43.210;27.910;2022-11-03T00:38:30;101537.88;;;13.81;100.00
37368;BME280;23240;43.210;27.910;2022-11-03T00:41:00;101530.03;;;13.89;100.00
37368;BME280;23240;43.210;27.910;2022-11-03T00:43:26;101524.59;;;14.00;100.00
37368;BME280;23240;43.210;27.910;2022-11-03T00:45:52;101530.31;;;14.07;100.00
37368;BME280;23240;43.210;27.910;2022-11-03T00:48:18;101534.44;;;14.22;100.00
37368;BME280;23240;43.210;27.910;2022-11-03T00:53:53;101538.88;;;14.12;100.00
37368;BME280;23240;43.210;27.910;2022-11-03T00:56:24;101537.81;;;14.03;100.00
37368;BME280;23240;43.210;27.910;2022-11-03T00:58:50;101539.91;;;14.00;100.00
37368;BME280;23240;43.210;27.910;2022-11-03T01:01:24;101539.44;;;13.95;100.00
37368;BME280;23240;43.210;27.910;2022-11-03T01:03:53;101546.81;;;13.81;100.00
37368;BME280;23240;43.210;27.910;2022-11-03T01:06:40;101542.53;;;13.79;100.00
37368;BME280;23240;43.210;27.910;2022-11-03T01:09:26;101542.88;;;13.85;100.00
37368;BME280;23240;43.210;27.910;2022-11-03T01:12:10;101545.19;;;13.90;100.00
37368;BME280;23240;43.210;27.910;2022-11-03T01:14:39;101541.78;;;13.88;100.00
37368;BME280;23240;43.210;27.910;2022-11-03T01:17:07;101550.81;;;13.87;100.00
37368;BME280;23240;43.210;27.910;2022-11-03T01:19:33;101551.69;;;13.87;100.00
37368;BME280;23240;43.210;27.910;2022-11-03T01:21:59;101544.47;;;13.77;100.00
37368;BME280;23240;43.210;27.910;2022-11-03T01:24:24;101542.78;;;13.76;100.00
37368;BME280;23240;43.210;27.910;2022-11-03T01:26:50;101544.88;;;13.72;100.00
37368;BME280;23240;43.210;27.910;2022-11-03T01:29:15;101555.63;;;13.72;100.00
37368;BME280;23240;43.210;27.910;2022-11-03T01:31:41;101556.38;;;13.74;100.00
37368;BME280;23240;43.210;27.910;2022-11-03T01:34:12;101545.94;;;13.81;100.00
37368;BME280;23240;43.210;27.910;2022-11-03T01:36:38;101542.22;;;14.04;100.00
37368;BME280;23240;43.210;27.910;2022-11-03T01:39:03;101545.22;;;14.22;100.00
37368;BME280;23240;43.210;27.910;2022-11-03T01:41:28;101559.34;;;14.35;100.00
37368;BME280;23240;43.210;27.910;2022-11-03T01:44:24;101554.50;;;14.50;100.00
37368;BME280;23240;43.210;27.910;2022-11-03T01:52:25;101546.22;;;14.84;100.00
37368;BME280;23240;43.210;27.910;2022-11-03T01:54:59;101551.16;;;15.00;100.00
37368;BME280;23240;43.210;27.910;2022-11-03T01:57:40;101559.84;;;15.13;100.00
37368;BME280;23240;43.210;27.910;2022-11-03T02:00:08;101561.19;;;15.19;100.00
37368;BME280;23240;43.210;27.910;2022-11-03T02:02:34;101556.03;;;15.15;100.00
37368;BME280;23240;43.210;27.910;2022-11-03T02:05:01;101564.59;;;15.21;100.00
37368;BME280;23240;43.210;27.910;2022-11-03T02:07:50;101555.81;;;15.28;100.00
37368;BME280;23240;43.210;27.910;2022-11-03T02:10:17;101556.09;;;15.25;100.00
37368;BME280;23240;43.210;27.910;2022-11-03T02:12:43;101552.38;;;15.26;100.00
37368;BME280;23240;43.210;27.910;2022-11-03T02:15:11;101561.63;;;15.24;100.00
37368;BME280;23240;43.210;27.910;2022-11-03T02:17:39;101565.19;;;15.24;100.00
37368;BME280;23240;43.210;27.910;2022-11-03T02:27:54;101576.28;;;15.31;100.00
37368;BME280;23240;43.210;27.910;2022-11-03T02:30:19;101576.13;;;15.32;100.00
37368;BME280;23240;43.210;27.910;2022-11-03T02:32:53;101577.41;;;15.28;100.00
37368;BME280;23240;43.210;27.910;2022-11-03T02:37:48;101581.63;;;15.21;100.00
37368;BME280;23240;43.210;27.910;2022-11-03T02:40:19;101577.03;;;15.12;100.00
37368;BME280;23240;43.210;27.910;2022-11-03T02:42:49;101574.63;;;15.09;100.00
37368;BME280;23240;43.210;27.910;2022-11-03T02:45:18;101581.00;;;15.08;100.00
37368;BME280;23240;43.210;27.910;2022-11-03T02:47:46;101582.28;;;15.04;100.00
37368;BME280;23240;43.210;27.910;2022-11-03T02:50:13;101590.63;;;15.01;100.00
37368;BME280;23240;43.210;27.910;2022-11-03T02:52:44;101593.56;;;14.98;100.00
37368;BME280;23240;43.210;27.910;2022-11-03T02:55:13;101594.56;;;14.97;100.00
37368;BME280;23240;43.210;27.910;2022-11-03T03:03:23;101609.50;;;14.59;100.00
37368;BME280;23240;43.210;27.910;2022-11-03T03:05:54;101608.41;;;14.61;100.00
37368;BME280;23240;43.210;27.910;2022-11-03T03:08:21;101597.94;;;14.68;100.00
37368;BME280;23240;43.210;27.910;2022-11-03T03:10:49;101600.03;;;14.64;100.00
37368;BME280;23240;43.210;27.910;2022-11-03T03:13:18;101609.72;;;14.67;100.00
37368;BME280;23240;43.210;27.910;2022-11-03T03:16:15;101599.06;;;14.65;100.00
37368;BME280;23240;43.210;27.910;2022-11-03T03:19:11;101598.66;;;14.70;100.00
37368;BME280;23240;43.210;27.910;2022-11-03T03:21:42;101594.84;;;14.73;100.00
37368;BME280;23240;43.210;27.910;2022-11-03T03:24:18;101608.94;;;14.76;100.00
37368;BME280;23240;43.210;27.910;2022-11-03T03:26:46;101606.22;;;14.76;100.00
37368;BME280;23240;43.210;27.910;2022-11-03T03:29:24;101604.78;;;14.72;100.00
37368;BME280;23240;43.210;27.910;2022-11-03T03:31:57;101602.78;;;14.74;100.00
37368;BME280;23240;43.210;27.910;2022-11-03T03:34:26;101608.72;;;14.68;100.00
37368;BME280;23240;43.210;27.910;2022-11-03T03:36:55;101609.38;;;14.81;100.00
37368;BME280;23240;43.210;27.910;2022-11-03T03:39:23;101614.97;;;14.89;100.00
37368;BME280;23240;43.210;27.910;2022-11-03T03:41:51;101629.56;;;14.87;100.00
37368;BME280;23240;43.210;27.910;2022-11-03T03:44:18;101630.28;;;14.89;100.00
37368;BME280;23240;43.210;27.910;2022-11-03T03:46:48;101629.03;;;14.72;100.00
37368;BME280;23240;43.210;27.910;2022-11-03T03:49:15;101626.13;;;14.64;100.00
37368;BME280;23240;43.210;27.910;2022-11-03T03:51:41;101626.53;;;14.59;100.00
37368;BME280;23240;43.210;27.910;2022-11-03T03:54:07;101622.66;;;14.52;100.00
37368;BME280;23240;43.210;27.910;2022-11-03T03:59:20;101620.09;;;14.39;100.00
37368;BME280;23240;43.210;27.910;2022-11-03T04:01:45;101621.59;;;14.32;100.00
37368;BME280;23240;43.210;27.910;2022-11-03T04:04:11;101622.34;;;14.23;100.00
37368;BME280;23240;43.210;27.910;2022-11-03T04:06:36;101613.06;;;14.16;100.00
37368;BME280;23240;43.210;27.910;2022-11-03T04:09:02;101615.41;;;14.09;100.00
37368;BME280;23240;43.210;27.910;2022-11-03T04:11:27;101625.00;;;14.02;100.00
37368;BME280;23240;43.210;27.910;2022-11-03T04:14:11;101634.31;;;13.98;100.00
37368;BME280;23240;43.210;27.910;2022-11-03T04:16:55;101630.28;;;13.93;100.00
37368;BME280;23240;43.210;27.910;2022-11-03T04:19:39;101641.44;;;13.88;100.00
37368;BME280;23240;43.210;27.910;2022-11-03T04:22:27;101641.53;;;13.86;100.00
37368;BME280;23240;43.210;27.910;2022-11-03T04:24:53;101626.38;;;13.74;100.00
37368;BME280;23240;43.210;27.910;2022-11-03T04:30:13;101643.78;;;13.59;100.00
37368;BME280;23240;43.210;27.910;2022-11-03T04:32:44;101645.84;;;13.55;100.00
37368;BME280;23240;43.210;27.910;2022-11-03T04:35:19;101638.16;;;13.51;100.00
37368;BME280;23240;43.210;27.910;2022-11-03T04:38:07;101644.03;;;13.45;100.00
37368;BME280;23240;43.210;27.910;2022-11-03T04:40:47;101649.78;;;13.40;100.00
37368;BME280;23240;43.210;27.910;2022-11-03T04:43:15;101646.31;;;13.38;100.00
37368;BME280;23240;43.210;27.910;2022-11-03T04:45:43;101661.25;;;13.31;100.00
37368;BME280;23240;43.210;27.910;2022-11-03T04:48:12;101647.03;;;13.29;100.00
37368;BME280;23240;43.210;27.910;2022-11-03T04:50:38;101652.44;;;13.29;100.00
37368;BME280;23240;43.210;27.910;2022-11-03T04:53:09;101656.00;;;13.41;100.00
37368;BME280;23240;43.210;27.910;2022-11-03T04:55:36;101650.25;;;13.56;100.00
37368;BME280;23240;43.210;27.910;2022-11-03T04:58:19;101662.84;;;13.67;100.00
37368;BME280;23240;43.210;27.910;2022-11-03T05:00:46;101665.56;;;13.78;100.00
37368;BME280;23240;43.210;27.910;2022-11-03T05:03:35;101681.84;;;13.88;100.00
37368;BME280;23240;43.210;27.910;2022-11-03T05:06:10;101677.28;;;13.88;100.00
37368;BME280;23240;43.210;27.910;2022-11-03T05:08:36;101681.31;;;13.94;100.00
37368;BME280;23240;43.210;27.910;2022-11-03T05:11:13;101686.94;;;13.91;100.00
37368;BME280;23240;43.210;27.910;2022-11-03T05:13:39;101684.16;;;13.93;100.00
37368;BME280;23240;43.210;27.910;2022-11-03T05:16:05;101692.34;;;13.91;100.00
37368;BME280;23240;43.210;27.910;2022-11-03T05:18:33;101696.72;;;13.92;100.00
37368;BME280;23240;43.210;27.910;2022-11-03T05:21:05;101697.72;;;13.91;100.00
37368;BME280;23240;43.210;27.910;2022-11-03T05:23:40;101703.72;;;13.95;100.00
37368;BME280;23240;43.210;27.910;2022-11-03T05:26:23;101709.25;;;13.93;100.00
37368;BME280;23240;43.210;27.910;2022-11-03T05:28:53;101713.25;;;13.87;100.00
37368;BME280;23240;43.210;27.910;2022-11-03T05:33:47;101723.06;;;13.55;100.00
37368;BME280;23240;43.210;27.910;2022-11-03T05:36:19;101731.31;;;13.29;100.00
37368;BME280;23240;43.210;27.910;2022-11-03T05:38:44;101736.81;;;13.28;100.00
37368;BME280;23240;43.210;27.910;2022-11-03T05:41:39;101739.50;;;13.28;100.00
37368;BME280;23240;43.210;27.910;2022-11-03T05:44:28;101746.50;;;13.30;100.00
37368;BME280;23240;43.210;27.910;2022-11-03T05:46:56;101741.97;;;13.31;100.00
37368;BME280;23240;43.210;27.910;2022-11-03T05:49:22;101748.84;;;13.35;100.00
37368;BME280;23240;43.210;27.910;2022-11-03T05:51:48;101751.28;;;13.38;100.00
37368;BME280;23240;43.210;27.910;2022-11-03T05:54:23;101749.44;;;13.38;100.00
37368;BME280;23240;43.210;27.910;2022-11-03T05:56:50;101759.00;;;13.43;100.00
37368;BME280;23240;43.210;27.910;2022-11-03T05:59:19;101750.81;;;13.44;100.00
37368;BME280;23240;43.210;27.910;2022-11-03T06:01:47;101750.22;;;13.52;100.00
37368;BME280;23240;43.210;27.910;2022-11-03T06:04:21;101749.72;;;13.58;100.00
37368;BME280;23240;43.210;27.910;2022-11-03T06:06:54;101749.63;;;13.59;100.00
37368;BME280;23240;43.210;27.910;2022-11-03T06:09:22;101753.66;;;13.65;100.00
37368;BME280;23240;43.210;27.910;2022-11-03T06:11:51;101760.53;;;13.69;100.00
37368;BME280;23240;43.210;27.910;2022-11-03T06:14:25;101756.50;;;13.75;100.00
37368;BME280;23240;43.210;27.910;2022-11-03T06:17:09;101764.94;;;13.81;100.00
37368;BME280;23240;43.210;27.910;2022-11-03T06:19:42;101768.38;;;13.95;100.00
37368;BME280;23240;43.210;27.910;2022-11-03T06:22:21;101762.63;;;13.99;100.00
37368;BME280;23240;43.210;27.910;2022-11-03T06:24:49;101760.78;;;14.00;100.00
37368;BME280;23240;43.210;27.910;2022-11-03T06:27:17;101771.06;;;14.06;100.00
37368;BME280;23240;43.210;27.910;2022-11-03T06:30:00;101766.06;;;14.12;100.00
37368;BME280;23240;43.210;27.910;2022-11-03T06:32:26;101770.69;;;14.10;100.00
37368;BME280;23240;43.210;27.910;2022-11-03T06:34:56;101773.63;;;14.19;100.00
37368;BME280;23240;43.210;27.910;2022-11-03T06:37:41;101777.91;;;14.32;100.00
37368;BME280;23240;43.210;27.910;2022-11-03T06:42:36;101782.28;;;14.45;100.00
37368;BME280;23240;43.210;27.910;2022-11-03T06:45:24;101783.78;;;14.49;100.00
37368;BME280;23240;43.210;27.910;2022-11-03T06:47:51;101782.94;;;14.48;100.00
37368;BME280;23240;43.210;27.910;2022-11-03T06:50:27;101779.72;;;14.54;100.00
37368;BME280;23240;43.210;27.910;2022-11-03T06:52:55;101781.84;;;14.51;100.00
37368;BME280;23240;43.210;27.910;2022-11-03T06:55:24;101777.66;;;14.58;100.00
37368;BME280;23240;43.210;27.910;2022-11-03T06:57:53;101784.00;;;14.68;100.00
37368;BME280;23240;43.210;27.910;2022-11-03T07:00:21;101784.59;;;14.72;100.00
37368;BME280;23240;43.210;27.910;2022-11-03T07:05:35;101777.84;;;14.77;100.00
37368;BME280;23240;43.210;27.910;2022-11-03T07:08:05;101779.16;;;14.83;100.00
37368;BME280;23240;43.210;27.910;2022-11-03T07:10:35;101782.63;;;14.85;100.00
37368;BME280;23240;43.210;27.910;2022-11-03T07:13:19;101776.84;;;14.78;100.00
37368;BME280;23240;43.210;27.910;2022-11-03T07:15:48;101782.25;;;14.78;100.00
37368;BME280;23240;43.210;27.910;2022-11-03T07:18:33;101784.22;;;14.76;100.00
37368;BME280;23240;43.210;27.910;2022-11-03T07:21:03;101785.81;;;14.79;100.00
37368;BME280;23240;43.210;27.910;2022-11-03T07:23:30;101786.41;;;14.82;100.00
37368;BME280;23240;43.210;27.910;2022-11-03T07:25:58;101783.75;;;14.71;100.00
37368;BME280;23240;43.210;27.910;2022-11-03T07:28:29;101786.94;;;14.76;100.00
37368;BME280;23240;43.210;27.910;2022-11-03T07:30:55;101790.09;;;14.81;100.00
37368;BME280;23240;43.210;27.910;2022-11-03T07:33:23;101786.28;;;14.84;100.00
37368;BME280;23240;43.210;27.910;2022-11-03T07:35:50;101784.09;;;14.78;100.00
37368;BME280;23240;43.210;27.910;2022-11-03T07:38:20;101787.41;;;14.81;100.00
37368;BME280;23240;43.210;27.910;2022-11-03T07:40:47;101792.88;;;14.91;100.00
37368;BME280;23240;43.210;27.910;2022-11-03T07:43:17;101799.38;;;15.00;100.00
37368;BME280;23240;43.210;27.910;2022-11-03T07:45:47;101796.09;;;15.17;100.00
37368;BME280;23240;43.210;27.910;2022-11-03T07:50:49;101788.53;;;15.32;100.00
37368;BME280;23240;43.210;27.910;2022-11-03T07:53:19;101780.16;;;15.56;100.00
37368;BME280;23240;43.210;27.910;2022-11-03T07:55:46;101785.47;;;15.78;100.00
37368;BME280;23240;43.210;27.910;2022-11-03T07:58:19;101777.88;;;15.93;100.00
37368;BME280;23240;43.210;27.910;2022-11-03T08:00:46;101776.25;;;16.11;100.00
37368;BME280;23240;43.210;27.910;2022-11-03T08:03:34;101776.88;;;16.25;100.00
37368;BME280;23240;43.210;27.910;2022-11-03T08:06:00;101788.06;;;16.60;100.00
37368;BME280;23240;43.210;27.910;2022-11-03T08:08:26;101789.59;;;16.93;100.00
37368;BME280;23240;43.210;27.910;2022-11-03T08:10:51;101786.97;;;17.40;100.00
37368;BME280;23240;43.210;27.910;2022-11-03T08:13:17;101788.16;;;17.09;100.00
37368;BME280;23240;43.210;27.910;2022-11-03T08:15:43;101780.69;;;16.72;100.00
37368;BME280;23240;43.210;27.910;2022-11-03T08:18:08;101782.81;;;16.59;100.00
37368;BME280;23240;43.210;27.910;2022-11-03T08:20:33;101787.78;;;16.54;100.00
37368;BME280;23240;43.210;27.910;2022-11-03T08:22:59;101783.50;;;16.61;100.00
37368;BME280;23240;43.210;27.910;2022-11-03T08:25:24;101787.56;;;16.76;100.00
37368;BME280;23240;43.210;27.910;2022-11-03T08:27:50;101783.44;;;17.01;100.00
37368;BME280;23240;43.210;27.910;2022-11-03T08:30:15;101786.16;;;17.11;100.00
37368;BME280;23240;43.210;27.910;2022-11-03T08:32:41;101771.22;;;17.16;100.00
37368;BME280;23240;43.210;27.910;2022-11-03T08:35:06;101781.75;;;17.19;100.00
37368;BME280;23240;43.210;27.910;2022-11-03T08:37:32;101777.91;;;17.22;100.00
37368;BME280;23240;43.210;27.910;2022-11-03T08:39:57;101779.31;;;17.36;100.00
37368;BME280;23240;43.210;27.910;2022-11-03T08:42:23;101770.59;;;17.52;100.00
37368;BME280;23240;43.210;27.910;2022-11-03T08:44:49;101772.44;;;17.61;100.00
37368;BME280;23240;43.210;27.910;2022-11-03T08:47:14;101767.84;;;17.81;100.00
37368;BME280;23240;43.210;27.910;2022-11-03T08:49:40;101754.91;;;18.02;100.00
37368;BME280;23240;43.210;27.910;2022-11-03T08:52:05;101759.16;;;18.14;100.00
37368;BME280;23240;43.210;27.910;2022-11-03T08:54:31;101768.66;;;18.28;100.00
37368;BME280;23240;43.210;27.910;2022-11-03T08:56:56;101762.47;;;18.36;100.00
37368;BME280;23240;43.210;27.910;2022-11-03T08:59:22;101766.34;;;18.33;100.00
37368;BME280;23240;43.210;27.910;2022-11-03T09:01:47;101753.72;;;18.42;100.00
37368;BME280;23240;43.210;27.910;2022-11-03T09:04:13;101753.66;;;18.52;100.00
37368;BME280;23240;43.210;27.910;2022-11-03T09:06:38;101753.91;;;18.58;100.00
37368;BME280;23240;43.210;27.910;2022-11-03T09:09:05;101766.31;;;18.61;100.00
37368;BME280;23240;43.210;27.910;2022-11-03T09:11:30;101760.41;;;18.47;100.00
37368;BME280;23240;43.210;27.910;2022-11-03T09:13:56;101760.41;;;18.47;100.00
37368;BME280;23240;43.210;27.910;2022-11-03T09:16:22;101759.75;;;18.36;100.00
37368;BME280;23240;43.210;27.910;2022-11-03T09:18:47;101760.81;;;18.25;100.00
37368;BME280;23240;43.210;27.910;2022-11-03T09:21:13;101758.31;;;18.14;100.00
37368;BME280;23240;43.210;27.910;2022-11-03T09:23:39;101748.19;;;18.06;100.00
37368;BME280;23240;43.210;27.910;2022-11-03T09:26:04;101750.75;;;18.08;100.00
37368;BME280;23240;43.210;27.910;2022-11-03T09:28:31;101754.88;;;18.12;100.00
37368;BME280;23240;43.210;27.910;2022-11-03T09:30:57;101754.88;;;18.12;100.00
37368;BME280;23240;43.210;27.910;2022-11-03T09:33:22;101748.88;;;18.08;100.00
37368;BME280;23240;43.210;27.910;2022-11-03T09:35:48;101749.22;;;18.05;100.00
37368;BME280;23240;43.210;27.910;2022-11-03T09:38:14;101748.25;;;17.96;100.00
37368;BME280;23240;43.210;27.910;2022-11-03T09:40:39;101749.25;;;17.95;100.00
37368;BME280;23240;43.210;27.910;2022-11-03T09:43:05;101739.81;;;18.00;100.00
37368;BME280;23240;43.210;27.910;2022-11-03T09:45:31;101738.09;;;17.98;100.00
37368;BME280;23240;43.210;27.910;2022-11-03T09:47:56;101731.06;;;18.06;100.00
37368;BME280;23240;43.210;27.910;2022-11-03T09:50:22;101730.97;;;17.97;100.00
37368;BME280;23240;43.210;27.910;2022-11-03T09:52:48;101736.78;;;18.03;100.00
37368;BME280;23240;43.210;27.910;2022-11-03T09:55:21;101730.72;;;17.91;100.00
37368;BME280;23240;43.210;27.910;2022-11-03T09:57:54;101730.44;;;17.94;100.00
37368;BME280;23240;43.210;27.910;2022-11-03T10:00:22;101725.47;;;17.89;100.00
37368;BME280;23240;43.210;27.910;2022-11-03T10:02:49;101723.16;;;17.94;100.00
37368;BME280;23240;43.210;27.910;2022-11-03T10:05:27;101716.72;;;17.95;100.00
37368;BME280;23240;43.210;27.910;2022-11-03T10:08:04;101716.44;;;17.89;100.00
37368;BME280;23240;43.210;27.910;2022-11-03T10:10:32;101713.66;;;17.81;100.00
37368;BME280;23240;43.210;27.910;2022-11-03T10:12:59;101713.25;;;17.76;100.00
37368;BME280;23240;43.210;27.910;2022-11-03T10:15:25;101711.38;;;17.76;100.00
37368;BME280;23240;43.210;27.910;2022-11-03T10:17:53;101711.34;;;17.86;100.00
37368;BME280;23240;43.210;27.910;2022-11-03T10:20:20;101704.50;;;17.82;100.00
37368;BME280;23240;43.210;27.910;2022-11-03T10:22:50;101699.50;;;17.87;100.00
37368;BME280;23240;43.210;27.910;2022-11-03T10:28:14;101700.22;;;17.79;100.00
37368;BME280;23240;43.210;27.910;2022-11-03T10:30:55;101701.78;;;17.82;100.00
37368;BME280;23240;43.210;27.910;2022-11-03T10:36:04;101688.97;;;17.74;100.00
37368;BME280;23240;43.210;27.910;2022-11-03T10:38:46;101700.22;;;17.79;100.00
37368;BME280;23240;43.210;27.910;2022-11-03T10:41:19;101692.53;;;17.84;100.00
37368;BME280;23240;43.210;27.910;2022-11-03T10:46:36;101692.00;;;17.98;100.00
37368;BME280;23240;43.210;27.910;2022-11-03T10:51:35;101684.47;;;17.92;100.00
37368;BME280;23240;43.210;27.910;2022-11-03T10:54:02;101675.78;;;17.89;100.00
37368;BME280;23240;43.210;27.910;2022-11-03T10:56:29;101665.66;;;17.91;100.00
37368;BME280;23240;43.210;27.910;2022-11-03T10:58:57;101674.75;;;18.00;100.00
37368;BME280;23240;43.210;27.910;2022-11-03T11:01:24;101669.75;;;18.05;100.00
37368;BME280;23240;43.210;27.910;2022-11-03T11:03:49;101670.41;;;18.07;100.00
37368;BME280;23240;43.210;27.910;2022-11-03T11:06:27;101659.03;;;18.03;100.00
37368;BME280;23240;43.210;27.910;2022-11-03T11:08:59;101662.75;;;18.02;100.00
37368;BME280;23240;43.210;27.910;2022-11-03T11:11:25;101652.56;;;17.86;100.00
37368;BME280;23240;43.210;27.910;2022-11-03T11:16:52;101655.50;;;17.65;100.00
37368;BME280;23240;43.210;27.910;2022-11-03T11:19:19;101646.63;;;17.73;100.00
37368;BME280;23240;43.210;27.910;2022-11-03T11:24:12;101644.91;;;17.72;100.00
37368;BME280;23240;43.210;27.910;2022-11-03T11:26:40;101637.50;;;17.74;100.00
37368;BME280;23240;43.210;27.910;2022-11-03T11:31:42;101637.44;;;17.84;100.00
37368;BME280;23240;43.210;27.910;2022-11-03T11:36:34;101637.09;;;17.96;100.00
37368;BME280;23240;43.210;27.910;2022-11-03T11:39:00;101629.59;;;17.90;100.00
37368;BME280;23240;43.210;27.910;2022-11-03T11:50:21;101632.75;;;17.86;100.00
37368;BME280;23240;43.210;27.910;2022-11-03T11:53:02;101626.53;;;17.66;100.00
37368;BME280;23240;43.210;27.910;2022-11-03T11:55:30;101625.09;;;17.71;100.00
37368;BME280;23240;43.210;27.910;2022-11-03T11:57:58;101627.66;;;17.73;100.00
37368;BME280;23240;43.210;27.910;2022-11-03T12:00:27;101620.34;;;17.83;100.00
37368;BME280;23240;43.210;27.910;2022-11-03T12:02:53;101620.34;;;17.83;100.00
37368;BME280;23240;43.210;27.910;2022-11-03T12:05:25;101619.66;;;17.81;100.00
37368;BME280;23240;43.210;27.910;2022-11-03T12:07:53;101614.50;;;17.78;100.00
37368;BME280;23240;43.210;27.910;2022-11-03T12:10:29;101616.09;;;17.81;100.00
37368;BME280;23240;43.210;27.910;2022-11-03T12:12:58;101618.41;;;17.76;100.00
37368;BME280;23240;43.210;27.910;2022-11-03T12:15:57;101615.53;;;17.77;100.00
37368;BME280;23240;43.210;27.910;2022-11-03T12:18:42;101617.41;;;17.67;100.00
37368;BME280;23240;43.210;27.910;2022-11-03T12:21:10;101616.00;;;17.63;100.00
37368;BME280;23240;43.210;27.910;2022-11-03T12:23:43;101616.75;;;17.55;100.00
37368;BME280;23240;43.210;27.910;2022-11-03T12:26:40;101615.88;;;17.55;100.00
37368;BME280;23240;43.210;27.910;2022-11-03T12:29:05;101610.78;;;17.52;100.00
37368;BME280;23240;43.210;27.910;2022-11-03T12:31:31;101607.34;;;17.50;100.00
37368;BME280;23240;43.210;27.910;2022-11-03T12:33:56;101606.94;;;17.44;100.00
37368;BME280;23240;43.210;27.910;2022-11-03T12:36:22;101613.63;;;17.50;100.00
37368;BME280;23240;43.210;27.910;2022-11-03T12:38:47;101614.09;;;17.45;100.00
37368;BME280;23240;43.210;27.910;2022-11-03T12:41:13;101607.09;;;17.43;100.00
37368;BME280;23240;43.210;27.910;2022-11-03T12:43:50;101605.84;;;17.37;100.00
37368;BME280;23240;43.210;27.910;2022-11-03T12:46:17;101607.13;;;17.33;100.00
37368;BME280;23240;43.210;27.910;2022-11-03T12:48:43;101603.78;;;17.21;100.00
37368;BME280;23240;43.210;27.910;2022-11-03T12:51:12;101610.59;;;17.16;100.00
37368;BME280;23240;43.210;27.910;2022-11-03T12:53:39;101605.34;;;17.14;100.00
37368;BME280;23240;43.210;27.910;2022-11-03T12:56:06;101604.78;;;17.11;100.00
37368;BME280;23240;43.210;27.910;2022-11-03T12:58:31;101604.69;;;17.03;100.00
37368;BME280;23240;43.210;27.910;2022-11-03T13:00:57;101606.53;;;17.02;100.00
37368;BME280;23240;43.210;27.910;2022-11-03T13:03:23;101616.94;;;16.97;100.00
37368;BME280;23240;43.210;27.910;2022-11-03T13:05:48;101614.38;;;16.95;100.00
37368;BME280;23240;43.210;27.910;2022-11-03T13:08:14;101616.22;;;16.95;100.00
37368;BME280;23240;43.210;27.910;2022-11-03T13:10:39;101604.13;;;16.89;100.00
37368;BME280;23240;43.210;27.910;2022-11-03T13:13:05;101613.78;;;16.92;100.00
37368;BME280;23240;43.210;27.910;2022-11-03T13:15:31;101611.53;;;16.97;100.00
37368;BME280;23240;43.210;27.910;2022-11-03T13:17:56;101614.94;;;16.89;100.00
37368;BME280;23240;43.210;27.910;2022-11-03T13:20:22;101616.38;;;16.84;100.00
37368;BME280;23240;43.210;27.910;2022-11-03T13:22:47;101613.25;;;16.79;100.00
37368;BME280;23240;43.210;27.910;2022-11-03T13:25:13;101603.88;;;16.73;100.00
37368;BME280;23240;43.210;27.910;2022-11-03T13:27:38;101607.25;;;16.65;100.00
37368;BME280;23240;43.210;27.910;2022-11-03T13:30:05;101601.59;;;16.59;100.00
37368;BME280;23240;43.210;27.910;2022-11-03T13:32:31;101601.84;;;16.56;100.00
37368;BME280;23240;43.210;27.910;2022-11-03T13:34:57;101600.44;;;16.52;100.00
37368;BME280;23240;43.210;27.910;2022-11-03T13:37:23;101608.69;;;16.50;100.00
37368;BME280;23240;43.210;27.910;2022-11-03T13:39:48;101613.81;;;16.43;100.00
37368;BME280;23240;43.210;27.910;2022-11-03T13:42:17;101616.06;;;16.38;100.00
37368;BME280;23240;43.210;27.910;2022-11-03T13:44:42;101613.25;;;16.40;100.00
37368;BME280;23240;43.210;27.910;2022-11-03T13:47:08;101607.84;;;16.40;100.00
37368;BME280;23240;43.210;27.910;2022-11-03T13:49:33;101613.81;;;16.43;100.00
37368;BME280;23240;43.210;27.910;2022-11-03T13:51:59;101612.84;;;16.44;100.00
37368;BME280;23240;43.210;27.910;2022-11-03T13:54:25;101617.25;;;16.45;100.00
37368;BME280;23240;43.210;27.910;2022-11-03T13:56:51;101619.94;;;16.45;100.00
37368;BME280;23240;43.210;27.910;2022-11-03T13:59:16;101614.69;;;16.44;100.00